Time;durP1;ratioP1;P1;durP2;ratioP2;P2;SDS_P1;SDS_P2;PMS_P1;PMS_P2;Temp;Humidity;BMP_temperature;BMP_pressure;BME280_temperature;BME280_humidity;BME280_pressure;Samples;Min_cycle;Max_cycle;Signal;HPM_P1;HPM_P2
2021/06/20 00:00:59;;;;;;;20.60;18.63;;;27.20;1.00;;;;;;5069504;28;20255;-60
2021/06/20 00:03:25;;;;;;;21.03;19.50;;;27.10;1.00;;;;;;5069699;28;20243;-61
2021/06/20 00:05:52;;;;;;;20.50;19.00;;;27.10;1.00;;;;;;5069243;28;20176;-61
2021/06/20 00:08:17;;;;;;;22.27;20.30;;;27.10;1.00;;;;;;5069585;28;20257;-61
2021/06/20 00:10:44;;;;;;;20.70;19.10;;;27.00;1.00;;;;;;5069448;28;20949;-62
2021/06/20 00:13:10;;;;;;;20.97;19.33;;;27.00;1.00;;;;;;5069466;28;20243;-61
2021/06/20 00:15:37;;;;;;;20.53;18.80;;;26.90;1.00;;;;;;5069516;28;20568;-61
2021/06/20 00:18:04;;;;;;;21.17;19.40;;;26.90;1.00;;;;;;5069335;28;20761;-60
2021/06/20 00:20:33;;;;;;;20.83;19.07;;;26.90;1.00;;;;;;5068148;28;20437;-61
2021/06/20 00:22:59;;;;;;;19.40;18.00;;;26.90;1.00;;;;;;5069596;28;20903;-60
2021/06/20 00:25:25;;;;;;;20.27;18.40;;;26.90;1.00;;;;;;5069782;28;20486;-62
2021/06/20 00:27:51;;;;;;;21.83;19.90;;;26.80;1.00;;;;;;5069111;28;20492;-61
2021/06/20 00:30:19;;;;;;;20.30;18.60;;;26.90;1.00;;;;;;5069355;28;20191;-60
2021/06/20 00:32:46;;;;;;;21.97;19.80;;;26.80;1.00;;;;;;5069329;28;20469;-62
2021/06/20 00:35:13;;;;;;;21.80;20.07;;;26.70;1.00;;;;;;5069057;28;20971;-60
2021/06/20 00:37:38;;;;;;;22.70;20.80;;;26.80;1.00;;;;;;5069336;28;20421;-62
2021/06/20 00:40:05;;;;;;;21.10;19.30;;;26.90;1.00;;;;;;5069078;28;20463;-61
2021/06/20 00:42:31;;;;;;;20.07;18.47;;;26.70;1.00;;;;;;5067952;28;20210;-62
2021/06/20 00:44:57;;;;;;;22.27;20.37;;;26.70;1.00;;;;;;5068995;28;20779;-62
2021/06/20 00:47:22;;;;;;;21.00;19.37;;;26.60;1.00;;;;;;5071199;28;20437;-62
2021/06/20 00:49:48;;;;;;;20.93;19.47;;;26.60;1.00;;;;;;5073269;28;20183;-61
2021/06/20 00:52:14;;;;;;;20.23;18.70;;;26.40;1.00;;;;;;5073198;28;20178;-61
2021/06/20 00:54:47;;;;;;;20.60;19.00;;;26.40;1.00;;;;;;5073269;28;20255;-61
2021/06/20 00:57:18;;;;;;;20.40;19.00;;;26.90;1.00;;;;;;5073039;28;20953;-61
2021/06/20 00:59:45;;;;;;;20.40;18.73;;;26.40;1.00;;;;;;5073390;28;20585;-61
2021/06/20 01:02:15;;;;;;;20.00;18.50;;;26.30;1.00;;;;;;5072876;28;20472;-60
2021/06/20 01:04:41;;;;;;;19.97;18.37;;;26.20;1.00;;;;;;5073182;28;20457;-61
2021/06/20 01:07:07;;;;;;;21.13;19.53;;;26.30;1.00;;;;;;5072678;28;20869;-62
2021/06/20 01:09:33;;;;;;;18.90;17.60;;;26.30;1.00;;;;;;5073080;28;20544;-61
2021/06/20 01:11:59;;;;;;;21.23;19.50;;;26.30;1.00;;;;;;5073069;28;20279;-62
2021/06/20 01:14:26;;;;;;;19.60;18.03;;;26.30;1.00;;;;;;5072463;28;20608;-61
2021/06/20 01:16:52;;;;;;;19.93;18.23;;;26.30;1.00;;;;;;5072689;28;20477;-62
2021/06/20 01:19:19;;;;;;;20.60;18.97;;;26.20;1.00;;;;;;5072670;28;20578;-62
2021/06/20 01:21:45;;;;;;;19.00;17.70;;;26.20;1.00;;;;;;5071234;28;20868;-61
2021/06/20 01:24:11;;;;;;;20.87;19.17;;;26.20;1.00;;;;;;5089766;28;20766;-60
2021/06/20 01:26:37;;;;;;;20.43;18.93;;;26.10;1.00;;;;;;5092752;28;20437;-60
2021/06/20 01:29:04;;;;;;;21.70;20.00;;;26.00;1.00;;;;;;5077030;28;20215;-60
2021/06/20 01:31:32;;;;;;;22.03;20.33;;;26.10;1.00;;;;;;5072386;28;20184;-61
2021/06/20 01:33:58;;;;;;;23.33;21.47;;;26.10;1.00;;;;;;5072469;28;20508;-62
2021/06/20 01:36:23;;;;;;;22.27;20.47;;;26.00;1.00;;;;;;5070606;28;20583;-62
2021/06/20 01:38:49;;;;;;;21.83;20.20;;;26.00;1.00;;;;;;5072505;28;20550;-61
2021/06/20 01:41:15;;;;;;;21.80;20.10;;;25.90;1.00;;;;;;5070802;28;20191;-61
2021/06/20 01:43:41;;;;;;;23.30;21.50;;;25.80;1.00;;;;;;5072175;28;20437;-61
2021/06/20 01:46:06;;;;;;;21.47;19.77;;;25.70;1.00;;;;;;5070903;28;20179;-62
2021/06/20 01:48:32;;;;;;;21.43;19.40;;;25.70;1.00;;;;;;5070833;28;20597;-61
2021/06/20 01:50:58;;;;;;;21.80;20.17;;;25.70;1.00;;;;;;5072217;28;20180;-61
2021/06/20 01:53:23;;;;;;;21.83;20.00;;;25.70;1.00;;;;;;5072077;28;20207;-62
2021/06/20 01:55:49;;;;;;;23.23;21.37;;;25.50;1.00;;;;;;5072005;28;20207;-61
2021/06/20 01:58:17;;;;;;;20.93;19.43;;;25.50;1.00;;;;;;5071183;28;20274;-61
2021/06/20 02:00:47;;;;;;;22.03;20.20;;;25.50;1.00;;;;;;5072082;28;20179;-62
2021/06/20 02:03:15;;;;;;;20.17;18.73;;;25.50;1.00;;;;;;5070668;28;20434;-62
2021/06/20 02:05:42;;;;;;;20.50;18.90;;;25.50;1.00;;;;;;5071664;28;20517;-60
2021/06/20 02:08:09;;;;;;;22.13;20.53;;;25.50;1.00;;;;;;5071685;28;20449;-61
2021/06/20 02:10:34;;;;;;;20.13;18.60;;;25.40;1.00;;;;;;5069920;28;20525;-61
2021/06/20 02:13:00;;;;;;;23.17;21.30;;;25.40;1.00;;;;;;5071590;28;20524;-61
2021/06/20 02:15:26;;;;;;;21.87;19.97;;;25.30;1.00;;;;;;5071594;28;20184;-60
2021/06/20 02:17:52;;;;;;;21.97;20.27;;;25.30;1.00;;;;;;5071402;28;20203;-61
2021/06/20 02:20:19;;;;;;;21.90;20.20;;;25.30;1.00;;;;;;5071815;28;20183;-60
2021/06/20 02:22:47;;;;;;;21.23;19.60;;;25.20;1.00;;;;;;5071545;28;20449;-62
2021/06/20 02:25:15;;;;;;;20.73;19.23;;;25.20;1.00;;;;;;5071602;28;20938;-63
2021/06/20 02:27:42;;;;;;;21.93;20.30;;;25.10;1.00;;;;;;5070941;28;20428;-60
2021/06/20 02:30:09;;;;;;;21.80;20.00;;;25.10;1.00;;;;;;5071547;28;20521;-62
2021/06/20 02:32:35;;;;;;;21.53;19.60;;;25.10;1.00;;;;;;5069911;28;20442;-62
2021/06/20 02:35:01;;;;;;;22.00;20.20;;;25.10;1.00;;;;;;5071166;28;20438;-61
2021/06/20 02:37:26;;;;;;;21.10;19.57;;;25.10;1.00;;;;;;5071138;28;20509;-62
2021/06/20 02:39:52;;;;;;;20.20;18.50;;;25.20;1.00;;;;;;5071098;28;20569;-61
2021/06/20 02:42:18;;;;;;;19.60;18.00;;;25.20;1.00;;;;;;5071225;28;20269;-62
2021/06/20 02:44:45;;;;;;;20.20;18.70;;;25.10;1.00;;;;;;5070857;28;20191;-60
2021/06/20 02:47:11;;;;;;;21.00;19.17;;;25.20;1.00;;;;;;5071089;28;20915;-61
2021/06/20 02:49:39;;;;;;;20.63;19.13;;;25.10;1.00;;;;;;5070984;28;20448;-62
2021/06/20 02:52:06;;;;;;;20.73;19.23;;;25.10;1.00;;;;;;5070909;28;20429;-61
2021/06/20 02:54:32;;;;;;;20.07;18.47;;;25.10;1.00;;;;;;5070770;28;20499;-61
2021/06/20 02:56:58;;;;;;;20.10;18.70;;;25.00;1.00;;;;;;5069320;28;20487;-61
2021/06/20 02:59:25;;;;;;;20.80;19.00;;;25.00;1.00;;;;;;5070896;28;20270;-61
2021/06/20 03:01:51;;;;;;;23.00;21.20;;;25.00;1.00;;;;;;5070777;28;20433;-60
2021/06/20 03:04:16;;;;;;;20.90;19.30;;;24.90;1.00;;;;;;5069370;28;20429;-60
2021/06/20 03:06:42;;;;;;;23.07;21.40;;;24.90;1.00;;;;;;5071049;28;20252;-60
2021/06/20 03:09:09;;;;;;;21.73;19.93;;;24.90;1.00;;;;;;5070142;28;20190;-62
2021/06/20 03:11:41;;;;;;;20.43;18.93;;;24.90;1.00;;;;;;5069642;28;20183;-61
2021/06/20 03:14:11;;;;;;;21.43;19.93;;;25.00;1.00;;;;;;5070175;28;20874;-62
2021/06/20 03:16:38;;;;;;;22.40;20.70;;;24.90;1.00;;;;;;5070044;28;20851;-61
2021/06/20 03:19:05;;;;;;;23.10;20.83;;;24.90;1.00;;;;;;5070092;28;20582;-61
2021/06/20 03:21:30;;;;;;;21.80;19.90;;;24.90;1.00;;;;;;5070357;28;20495;-61
2021/06/20 03:23:56;;;;;;;22.50;20.80;;;25.00;1.00;;;;;;5070064;28;20996;-60
2021/06/20 03:26:21;;;;;;;20.93;19.27;;;25.00;1.00;;;;;;5070377;28;20336;-60
2021/06/20 03:28:47;;;;;;;21.37;19.57;;;25.10;1.00;;;;;;5070100;28;20223;-61
2021/06/20 03:31:13;;;;;;;21.40;19.67;;;25.30;1.00;;;;;;5070268;28;20187;-60
2021/06/20 03:33:38;;;;;;;19.90;18.40;;;25.30;1.00;;;;;;5070203;28;20194;-61
2021/06/20 03:36:05;;;;;;;19.57;18.10;;;25.40;1.00;;;;;;5072741;28;20245;-61
2021/06/20 03:38:31;;;;;;;19.00;17.60;;;25.50;1.00;;;;;;5089955;28;20257;-60
2021/06/20 03:40:56;;;;;;;18.70;17.30;;;25.60;1.00;;;;;;5090143;28;20464;-61
2021/06/20 03:43:22;;;;;;;20.23;18.67;;;25.60;1.00;;;;;;5090379;28;20265;-61
2021/06/20 03:45:47;;;;;;;21.00;19.17;;;25.60;1.00;;;;;;5089994;28;20571;-62
2021/06/20 03:48:13;;;;;;;21.00;19.43;;;25.60;1.00;;;;;;5088593;28;20194;-60
2021/06/20 03:50:39;;;;;;;22.30;20.60;;;25.50;1.00;;;;;;5089974;28;20249;-60
2021/06/20 03:53:04;;;;;;;20.40;18.83;;;25.40;1.00;;;;;;5088155;28;20194;-61
2021/06/20 03:55:30;;;;;;;20.80;19.27;;;25.20;1.00;;;;;;5090240;28;20202;-61
2021/06/20 03:57:55;;;;;;;22.17;20.20;;;24.90;1.00;;;;;;5090056;28;20193;-60
2021/06/20 04:00:21;;;;;;;21.93;20.10;;;24.60;1.00;;;;;;5089985;28;20258;-61
2021/06/20 04:02:47;;;;;;;21.87;19.80;;;24.60;1.00;;;;;;5088548;28;20220;-60
2021/06/20 04:05:14;;;;;;;20.03;18.63;;;24.70;1.00;;;;;;5088323;28;20197;-60
2021/06/20 04:07:41;;;;;;;20.40;18.90;;;24.80;1.00;;;;;;5089663;28;20181;-60
2021/06/20 04:10:07;;;;;;;19.40;18.00;;;25.20;1.00;;;;;;5089508;28;20429;-61
2021/06/20 04:12:32;;;;;;;19.10;17.70;;;25.30;1.00;;;;;;5089750;28;20465;-61
2021/06/20 04:14:58;;;;;;;18.87;17.43;;;25.30;1.00;;;;;;5089782;28;20573;-61
2021/06/20 04:17:23;;;;;;;18.50;17.00;;;25.40;1.00;;;;;;5089484;28;20693;-61
2021/06/20 04:19:50;;;;;;;18.77;17.37;;;25.40;1.00;;;;;;5089653;28;20533;-59
2021/06/20 04:22:15;;;;;;;19.83;18.37;;;25.50;1.00;;;;;;5075597;28;20240;-61
2021/06/20 04:24:41;;;;;;;19.07;17.60;;;25.70;1.00;;;;;;5069608;28;20425;-61
2021/06/20 04:27:08;;;;;;;18.43;17.00;;;25.70;1.00;;;;;;5069506;28;20187;-60
2021/06/20 04:29:34;;;;;;;19.60;18.20;;;25.80;1.00;;;;;;5067767;28;20293;-62
2021/06/20 04:32:00;;;;;;;18.17;16.73;;;26.00;1.00;;;;;;5069531;28;20434;-61
2021/06/20 04:34:25;;;;;;;17.57;16.10;;;26.00;1.00;;;;;;5069133;28;20265;-62
2021/06/20 04:36:52;;;;;;;18.77;17.37;;;26.10;1.00;;;;;;5078396;28;20259;-61
2021/06/20 04:39:18;;;;;;;17.07;15.67;;;26.20;1.00;;;;;;5087993;28;20202;-61
2021/06/20 04:41:43;;;;;;;17.27;16.07;;;26.10;1.00;;;;;;5089672;28;20446;-61
2021/06/20 04:47:15;;;;;;;17.17;15.77;;;27.30;1.00;;;;;;5026454;28;20246;-60
2021/06/20 04:49:42;;;;;;;16.33;15.03;;;26.30;1.00;;;;;;5061785;28;20453;-61
2021/06/20 04:52:10;;;;;;;17.47;16.03;;;26.40;1.00;;;;;;5069121;28;20424;-62
2021/06/20 04:54:48;;;;;;;16.80;15.43;;;26.50;1.00;;;;;;5067570;28;20795;-61
2021/06/20 04:57:14;;;;;;;16.17;14.97;;;26.40;1.00;;;;;;5069074;28;20593;-60
2021/06/20 04:59:40;;;;;;;16.77;15.47;;;26.50;1.00;;;;;;5067485;28;20465;-61
2021/06/20 05:02:05;;;;;;;16.97;15.60;;;26.60;1.00;;;;;;5068991;28;20442;-61
2021/06/20 05:04:32;;;;;;;15.73;14.63;;;26.70;1.00;;;;;;5070248;28;20564;-61
2021/06/20 05:06:58;;;;;;;16.83;15.43;;;26.90;1.00;;;;;;5069105;28;20232;-61
2021/06/20 05:09:23;;;;;;;15.73;14.53;;;27.10;1.00;;;;;;5069022;28;20829;-60
2021/06/20 05:11:49;;;;;;;15.53;14.17;;;27.20;1.00;;;;;;5069022;28;20688;-62
2021/06/20 05:14:14;;;;;;;15.47;14.30;;;27.40;1.00;;;;;;5068971;28;20251;-61
2021/06/20 05:16:40;;;;;;;15.17;14.10;;;27.50;1.00;;;;;;5068678;28;20191;-62
2021/06/20 05:19:05;;;;;;;15.43;14.43;;;27.70;1.00;;;;;;5067549;28;20283;-61
2021/06/20 05:21:34;;;;;;;14.77;13.40;;;27.70;1.00;;;;;;5069316;28;20632;-62
2021/06/20 05:24:00;;;;;;;13.87;12.87;;;27.70;1.00;;;;;;5072730;28;20211;-61
2021/06/20 05:26:25;;;;;;;14.20;13.10;;;27.70;1.00;;;;;;5087617;28;20431;-60
2021/06/20 05:28:51;;;;;;;13.90;12.90;;;27.80;1.00;;;;;;5088568;28;20452;-61
2021/06/20 05:31:16;;;;;;;14.30;13.20;;;27.90;1.00;;;;;;5088963;28;20212;-62
2021/06/20 05:33:42;;;;;;;13.40;12.47;;;27.90;1.00;;;;;;5089893;28;20599;-62
2021/06/20 05:36:08;;;;;;;14.87;13.67;;;28.00;1.00;;;;;;5091333;28;20189;-60
2021/06/20 05:38:33;;;;;;;13.20;12.30;;;28.10;1.00;;;;;;5092668;28;20214;-61
2021/06/20 05:40:59;;;;;;;14.97;13.70;;;28.10;1.00;;;;;;5092589;28;20193;-61
2021/06/20 05:43:25;;;;;;;14.23;13.13;;;28.10;1.00;;;;;;5092548;28;20197;-61
2021/06/20 05:45:51;;;;;;;13.60;12.70;;;28.20;1.00;;;;;;5092188;28;20428;-62
2021/06/20 05:48:16;;;;;;;13.83;12.73;;;28.10;1.00;;;;;;5092954;28;20179;-61
2021/06/20 05:50:42;;;;;;;13.03;12.13;;;28.10;1.00;;;;;;5092336;28;20183;-60
2021/06/20 05:53:08;;;;;;;13.27;12.20;;;28.10;1.00;;;;;;5091387;28;20182;-59
2021/06/20 05:55:33;;;;;;;12.30;11.47;;;28.00;1.00;;;;;;5092392;28;20761;-62
2021/06/20 05:57:59;;;;;;;13.07;12.07;;;28.10;1.00;;;;;;5092077;28;20255;-62
2021/06/20 06:00:24;;;;;;;12.57;11.70;;;28.10;1.00;;;;;;5081369;28;20675;-63
2021/06/20 06:02:50;;;;;;;11.70;10.90;;;28.10;1.00;;;;;;5072364;28;20520;-62
2021/06/20 06:05:15;;;;;;;12.80;11.70;;;28.20;1.00;;;;;;5071691;28;20228;-62
2021/06/20 06:07:42;;;;;;;13.10;12.20;;;28.30;1.00;;;;;;5076483;28;20181;-63
2021/06/20 06:10:08;;;;;;;12.37;11.43;;;28.40;1.00;;;;;;5091651;28;20652;-63
2021/06/20 06:12:33;;;;;;;12.80;11.80;;;28.60;1.00;;;;;;5091320;28;20581;-61
2021/06/20 06:15:00;;;;;;;11.63;10.63;;;28.80;1.00;;;;;;5091252;28;21008;-62
2021/06/20 06:17:25;;;;;;;11.57;10.77;;;28.80;1.00;;;;;;5092497;28;20189;-61
2021/06/20 06:19:52;;;;;;;12.37;11.47;;;29.00;1.00;;;;;;5091064;28;20453;-62
2021/06/20 06:22:21;;;;;;;11.60;10.70;;;29.20;1.00;;;;;;5092736;28;20672;-61
2021/06/20 06:24:48;;;;;;;11.00;10.20;;;29.30;1.00;;;;;;5092874;28;20439;-62
2021/06/20 06:27:15;;;;;;;11.20;10.40;;;29.40;1.00;;;;;;5092196;28;20910;-62
2021/06/20 06:29:40;;;;;;;10.67;9.97;;;29.50;1.00;;;;;;5084269;28;20462;-63
2021/06/20 06:32:07;;;;;;;11.83;10.93;;;29.80;1.00;;;;;;5072210;28;20433;-62
2021/06/20 06:34:34;;;;;;;12.27;11.17;;;30.00;1.00;;;;;;5070504;28;20211;-59
2021/06/20 06:36:59;;;;;;;11.63;10.83;;;30.30;1.00;;;;;;5070968;28;20510;-61
2021/06/20 06:39:26;;;;;;;11.87;10.87;;;30.50;1.00;;;;;;5071385;28;20448;-60
2021/06/20 06:41:52;;;;;;;11.73;11.00;;;30.60;1.00;;;;;;5071293;28;20262;-60
2021/06/20 06:44:18;;;;;;;11.93;11.03;;;30.60;1.00;;;;;;5069774;28;20802;-60
2021/06/20 06:46:44;;;;;;;11.20;10.40;;;30.70;1.00;;;;;;5071544;28;20838;-64
2021/06/20 06:49:10;;;;;;;11.30;10.50;;;30.90;1.00;;;;;;5071019;28;20434;-61
2021/06/20 06:51:35;;;;;;;11.07;10.27;;;31.10;1.00;;;;;;5071298;28;20245;-60
2021/06/20 06:54:01;;;;;;;11.43;10.67;;;31.10;1.00;;;;;;5070472;28;20649;-62
2021/06/20 06:56:27;;;;;;;11.80;10.60;;;31.00;1.00;;;;;;5071104;28;20190;-60
2021/06/20 06:58:52;;;;;;;10.90;10.10;;;31.00;1.00;;;;;;5070892;28;20215;-61
2021/06/20 07:01:18;;;;;;;10.50;9.70;;;31.10;1.00;;;;;;5071096;28;20175;-60
2021/06/20 07:03:43;;;;;;;11.10;10.30;;;31.40;1.00;;;;;;5071015;28;20218;-61
2021/06/20 07:06:10;;;;;;;10.80;10.10;;;31.90;1.00;;;;;;5070862;28;20172;-62
2021/06/20 07:08:36;;;;;;;10.27;9.57;;;32.00;1.00;;;;;;5071023;28;20628;-61
2021/06/20 07:11:02;;;;;;;10.73;10.03;;;32.20;1.00;;;;;;5069265;28;20441;-62
2021/06/20 07:13:28;;;;;;;11.63;10.83;;;32.30;1.00;;;;;;5071064;28;20195;-60
2021/06/20 07:15:53;;;;;;;9.60;8.80;;;32.30;1.00;;;;;;5070415;28;20444;-60
2021/06/20 07:18:20;;;;;;;10.10;9.40;;;32.20;1.00;;;;;;5089196;28;20238;-60
2021/06/20 07:20:46;;;;;;;10.33;9.63;;;32.10;1.00;;;;;;5090872;28;20183;-62
2021/06/20 07:23:12;;;;;;;11.00;10.10;;;32.00;1.00;;;;;;5090854;28;20527;-61
2021/06/20 07:25:38;;;;;;;11.53;10.53;;;32.10;1.00;;;;;;5089169;28;20448;-62
2021/06/20 07:28:05;;;;;;;11.10;10.30;;;32.10;1.00;;;;;;5087038;28;20457;-63
2021/06/20 07:30:31;;;;;;;11.33;10.17;;;32.10;1.00;;;;;;5070379;28;20214;-62
2021/06/20 07:32:57;;;;;;;11.37;10.67;;;32.10;1.00;;;;;;5070525;28;20927;-61
2021/06/20 07:35:23;;;;;;;10.20;9.40;;;32.20;1.00;;;;;;5070497;28;20511;-60
2021/06/20 07:37:49;;;;;;;10.73;10.03;;;32.20;1.00;;;;;;5070633;28;20210;-62
2021/06/20 07:40:18;;;;;;;11.47;10.67;;;32.20;1.00;;;;;;5069036;28;20434;-61
2021/06/20 07:42:45;;;;;;;10.20;9.50;;;32.40;1.00;;;;;;5070751;28;20267;-61
2021/06/20 07:45:11;;;;;;;10.60;9.80;;;32.60;1.00;;;;;;5071015;28;20430;-60
2021/06/20 07:47:37;;;;;;;10.43;9.73;;;32.80;1.00;;;;;;5070368;28;20426;-60
2021/06/20 07:50:08;;;;;;;10.30;9.67;;;33.20;1.00;;;;;;5081196;28;20443;-61
2021/06/20 07:52:34;;;;;;;11.40;10.60;;;33.30;1.00;;;;;;5076981;28;20179;-61
2021/06/20 07:55:00;;;;;;;10.93;10.13;;;33.40;1.00;;;;;;5068910;28;20490;-61
2021/06/20 07:57:26;;;;;;;11.23;10.53;;;33.50;1.00;;;;;;5069792;28;20286;-61
2021/06/20 07:59:51;;;;;;;11.53;10.07;;;33.40;1.00;;;;;;5069971;28;20308;-62
2021/06/20 08:02:17;;;;;;;10.77;10.07;;;33.20;1.00;;;;;;5070129;28;20266;-61
2021/06/20 08:04:44;;;;;;;10.87;10.03;;;33.30;1.00;;;;;;5069880;28;20195;-61
2021/06/20 08:07:10;;;;;;;11.80;11.03;;;33.50;1.00;;;;;;5080965;28;20403;-60
2021/06/20 08:09:36;;;;;;;11.00;10.00;;;33.40;1.00;;;;;;5089672;28;21012;-62
2021/06/20 08:12:02;;;;;;;10.50;9.80;;;33.20;1.00;;;;;;5090136;28;20516;-61
2021/06/20 08:14:28;;;;;;;10.30;9.50;;;33.20;1.00;;;;;;5090135;28;20206;-61
2021/06/20 08:16:53;;;;;;;11.57;10.43;;;33.30;1.00;;;;;;5079170;28;20511;-61
2021/06/20 08:19:19;;;;;;;11.30;10.53;;;33.30;1.00;;;;;;5069749;28;20200;-61
2021/06/20 08:21:46;;;;;;;11.80;10.97;;;33.50;1.00;;;;;;5069709;28;20529;-63
2021/06/20 08:24:11;;;;;;;10.47;9.77;;;33.60;1.00;;;;;;5069868;28;20237;-62
2021/06/20 08:26:37;;;;;;;11.47;10.30;;;33.90;1.00;;;;;;5069877;28;20433;-63
2021/06/20 08:29:04;;;;;;;12.40;11.30;;;34.20;1.00;;;;;;5069457;28;20677;-63
2021/06/20 08:31:30;;;;;;;10.60;9.47;;;34.30;1.00;;;;;;5070017;28;20796;-61
2021/06/20 08:33:56;;;;;;;10.93;10.13;;;34.00;1.00;;;;;;5069786;28;20508;-60
2021/06/20 08:36:21;;;;;;;10.50;9.80;;;34.10;1.00;;;;;;5068617;28;20914;-62
2021/06/20 08:38:47;;;;;;;10.87;10.07;;;34.30;1.00;;;;;;5069885;28;20252;-63
2021/06/20 08:41:13;;;;;;;12.23;9.97;;;34.80;1.00;;;;;;5077090;28;20206;-61
2021/06/20 08:43:39;;;;;;;10.30;9.60;;;35.10;1.00;;;;;;5069936;28;20176;-61
2021/06/20 08:46:05;;;;;;;11.50;10.50;;;35.20;1.00;;;;;;5069522;28;20517;-62
2021/06/20 08:48:33;;;;;;;10.80;10.00;;;35.20;1.00;;;;;;5069656;28;20253;-63
2021/06/20 08:50:59;;;;;;;10.27;9.57;;;35.10;1.00;;;;;;5068423;28;20664;-61
2021/06/20 08:53:25;;;;;;;11.80;10.90;;;35.00;1.00;;;;;;5069884;28;20433;-62
2021/06/20 08:55:51;;;;;;;10.63;9.73;;;35.20;1.00;;;;;;5069668;28;20442;-60
2021/06/20 08:58:23;;;;;;;11.90;10.80;;;35.00;1.00;;;;;;5069569;28;20291;-63
2021/06/20 09:00:49;;;;;;;10.47;9.67;;;35.20;1.00;;;;;;5069957;28;20444;-62
2021/06/20 09:03:15;;;;;;;11.47;10.27;;;35.40;1.00;;;;;;5069472;28;20417;-63
2021/06/20 09:05:54;;;;;;;11.13;10.33;;;35.10;1.00;;;;;;5069555;28;20518;-60
2021/06/20 09:08:24;;;;;;;10.60;9.80;;;35.10;1.00;;;;;;5070270;28;20193;-62
2021/06/20 09:10:50;;;;;;;11.63;10.50;;;35.40;1.00;;;;;;5073820;28;20437;-62
2021/06/20 09:13:16;;;;;;;10.33;9.43;;;35.50;1.00;;;;;;5073248;28;20445;-62
2021/06/20 09:15:42;;;;;;;10.40;9.57;;;35.60;1.00;;;;;;5073563;28;20175;-61
2021/06/20 09:18:10;;;;;;;10.67;9.70;;;36.00;1.00;;;;;;5073525;28;20480;-62
2021/06/20 09:20:44;;;;;;;10.70;10.00;;;36.40;1.00;;;;;;5073333;28;20191;-60
2021/06/20 09:23:12;;;;;;;10.80;10.00;;;36.60;1.00;;;;;;5073245;28;20482;-62
2021/06/20 09:25:39;;;;;;;11.77;10.33;;;36.60;1.00;;;;;;5073182;28;20465;-60
2021/06/20 09:28:06;;;;;;;9.90;9.10;;;36.60;1.00;;;;;;5072946;28;20518;-62
2021/06/20 09:30:39;;;;;;;9.67;8.80;;;36.70;1.00;;;;;;5073253;28;20529;-62
2021/06/20 09:33:05;;;;;;;9.10;8.50;;;36.70;1.00;;;;;;5073095;28;20540;-61
2021/06/20 09:35:45;;;;;;;9.50;8.60;;;36.40;1.00;;;;;;5071573;28;20465;-60
2021/06/20 09:38:31;;;;;;;8.90;8.33;;;36.30;1.00;;;;;;5072654;28;20456;-60
2021/06/20 09:41:06;;;;;;;9.20;8.50;;;36.40;1.00;;;;;;5072888;28;20429;-61
2021/06/20 09:43:34;;;;;;;9.53;8.83;;;36.40;1.00;;;;;;5072974;28;20508;-61
2021/06/20 09:46:00;;;;;;;8.33;7.83;;;36.60;1.00;;;;;;5072655;28;20461;-62
2021/06/20 09:48:31;;;;;;;9.60;8.53;;;36.30;1.00;;;;;;5072452;28;20445;-61
2021/06/20 09:50:59;;;;;;;8.67;7.97;;;36.10;1.00;;;;;;5072463;28;20959;-61
2021/06/20 09:53:39;;;;;;;9.43;8.77;;;36.40;1.00;;;;;;5072620;28;20449;-62
2021/06/20 09:56:20;;;;;;;9.00;8.30;;;36.60;1.00;;;;;;5071136;28;20437;-62
2021/06/20 09:59:07;;;;;;;8.63;7.70;;;36.60;1.00;;;;;;5071008;28;20961;-61
2021/06/20 10:01:38;;;;;;;9.10;8.30;;;36.90;1.00;;;;;;5070689;28;21005;-60
2021/06/20 10:04:05;;;;;;;8.97;8.10;;;36.90;1.00;;;;;;5071840;28;20452;-61
2021/06/20 10:06:30;;;;;;;9.50;8.53;;;37.00;1.00;;;;;;5072086;28;20883;-61
2021/06/20 10:08:56;;;;;;;9.50;8.50;;;37.20;1.00;;;;;;5071873;28;20429;-60
2021/06/20 10:11:23;;;;;;;12.30;7.90;;;37.50;1.00;;;;;;5072391;28;20938;-62
2021/06/20 10:13:48;;;;;;;13.50;8.37;;;37.40;1.00;;;;;;5071661;28;20179;-60
2021/06/20 10:16:17;;;;;;;11.23;7.73;;;37.20;1.00;;;;;;5071949;28;20430;-62
2021/06/20 10:18:58;;;;;;;9.30;8.40;;;37.00;1.00;;;;;;5071451;28;20631;-61
2021/06/20 10:21:31;;;;;;;9.87;8.57;;;36.90;1.00;;;;;;5071876;28;21011;-61
2021/06/20 10:24:15;;;;;;;8.93;8.20;;;36.70;1.00;;;;;;5072549;28;20434;-61
2021/06/20 10:27:00;;;;;;;10.63;8.57;;;36.50;1.00;;;;;;5090439;28;20436;-61
2021/06/20 10:29:28;;;;;;;10.80;7.93;;;36.40;1.00;;;;;;5077878;28;20545;-61
2021/06/20 10:31:56;;;;;;;8.90;8.20;;;36.60;1.00;;;;;;5071468;28;20430;-61
2021/06/20 10:34:25;;;;;;;12.20;8.80;;;36.50;1.00;;;;;;5071568;28;20456;-61
2021/06/20 10:36:55;;;;;;;11.50;8.47;;;36.40;1.00;;;;;;5079238;28;20980;-61
2021/06/20 10:39:22;;;;;;;11.00;8.27;;;36.60;1.00;;;;;;5091370;28;20522;-62
2021/06/20 10:41:48;;;;;;;10.13;8.43;;;36.70;1.00;;;;;;5091062;28;20428;-61
2021/06/20 10:44:14;;;;;;;12.57;8.60;;;36.70;1.00;;;;;;5091668;28;20519;-62
2021/06/20 10:46:41;;;;;;;11.20;8.00;;;36.80;1.00;;;;;;5091697;28;20536;-62
2021/06/20 10:49:20;;;;;;;12.40;8.23;;;36.80;1.00;;;;;;5090309;28;20179;-61
2021/06/20 10:51:45;;;;;;;18.27;10.03;;;36.60;1.00;;;;;;5090260;28;20432;-62
2021/06/20 10:54:25;;;;;;;14.73;8.97;;;36.30;1.00;;;;;;5091309;28;20512;-62
2021/06/20 10:57:01;;;;;;;13.93;9.07;;;36.80;1.00;;;;;;5091489;28;20592;-63
2021/06/20 10:59:27;;;;;;;11.00;8.87;;;37.10;1.00;;;;;;5089820;28;20464;-62
2021/06/20 11:01:53;;;;;;;11.80;9.37;;;37.30;1.00;;;;;;5091496;28;20790;-62
2021/06/20 11:04:18;;;;;;;12.60;9.00;;;36.80;1.00;;;;;;5090928;28;20705;-61
2021/06/20 11:06:55;;;;;;;12.17;9.93;;;36.40;1.00;;;;;;5091083;28;20425;-61
2021/06/20 11:09:22;;;;;;;11.10;8.77;;;36.00;1.00;;;;;;5090848;28;20186;-62
2021/06/20 11:11:53;;;;;;;13.50;9.77;;;35.90;1.00;;;;;;5089390;28;20451;-61
2021/06/20 11:14:20;;;;;;;10.73;9.60;;;35.90;1.00;;;;;;5091551;28;20443;-60
2021/06/20 11:16:50;;;;;;;12.40;9.27;;;35.70;1.00;;;;;;5091304;28;20441;-61
2021/06/20 11:19:22;;;;;;;15.20;9.63;;;35.50;1.00;;;;;;5091041;28;20475;-62
2021/06/20 11:21:51;;;;;;;20.50;10.07;;;35.50;1.00;;;;;;5090939;28;20432;-62
2021/06/20 11:24:19;;;;;;;16.57;10.30;;;35.20;1.00;;;;;;5090800;28;20433;-62
2021/06/20 11:26:57;;;;;;;11.07;9.00;;;34.90;1.00;;;;;;5090928;28;20436;-61
2021/06/20 11:29:25;;;;;;;12.43;10.40;;;35.20;1.00;;;;;;5089165;28;21945;-62
2021/06/20 11:31:53;;;;;;;13.27;9.77;;;35.30;1.00;;;;;;5088570;28;20440;-62
2021/06/20 11:34:20;;;;;;;12.60;10.17;;;35.30;1.00;;;;;;5090801;28;20429;-63
2021/06/20 11:36:46;;;;;;;13.63;10.37;;;35.70;1.00;;;;;;5090919;28;20969;-62
2021/06/20 11:39:14;;;;;;;15.20;10.40;;;36.00;1.00;;;;;;5090486;28;20460;-61
2021/06/20 11:41:45;;;;;;;12.80;9.73;;;35.90;1.00;;;;;;5090781;28;20518;-62
2021/06/20 11:44:13;;;;;;;18.00;10.33;;;36.10;1.00;;;;;;5088587;28;20437;-62
2021/06/20 11:46:42;;;;;;;13.07;10.07;;;36.30;1.00;;;;;;5089333;28;20440;-61
2021/06/20 11:49:11;;;;;;;16.77;10.20;;;35.70;1.00;;;;;;5090541;28;20496;-62
2021/06/20 11:51:44;;;;;;;17.57;11.00;;;35.50;1.00;;;;;;5090689;28;20482;-62
2021/06/20 11:54:11;;;;;;;14.10;9.10;;;35.50;1.00;;;;;;5089052;28;20433;-62
2021/06/20 11:56:39;;;;;;;15.23;9.47;;;35.50;1.00;;;;;;5090510;28;20442;-61
2021/06/20 11:59:05;;;;;;;14.03;10.07;;;35.50;1.00;;;;;;5090124;28;20456;-60
2021/06/20 12:01:48;;;;;;;18.03;10.07;;;35.50;1.00;;;;;;5066606;28;20520;-62
2021/06/20 12:04:19;;;;;;;21.20;9.90;;;35.50;1.00;;;;;;5069475;28;20419;-61
2021/06/20 12:06:44;;;;;;;16.43;9.27;;;35.60;1.00;;;;;;5066218;28;20437;-63
2021/06/20 12:09:11;;;;;;;13.17;9.60;;;35.70;1.00;;;;;;5068711;28;20456;-61
2021/06/20 12:11:37;;;;;;;14.80;9.10;;;35.80;1.00;;;;;;5069682;28;20187;-62
2021/06/20 12:14:04;;;;;;;12.87;9.50;;;35.60;1.00;;;;;;5069609;28;20773;-62
2021/06/20 12:16:30;;;;;;;13.73;8.63;;;35.50;1.00;;;;;;5068339;28;21268;-63
2021/06/20 12:18:57;;;;;;;15.20;8.73;;;35.70;1.00;;;;;;5067977;28;20549;-62
2021/06/20 12:21:29;;;;;;;12.70;8.10;;;35.50;1.00;;;;;;5067572;28;20180;-63
2021/06/20 12:23:56;;;;;;;17.20;9.00;;;35.20;1.00;;;;;;5069695;28;20449;-61
2021/06/20 12:26:32;;;;;;;14.90;9.37;;;35.20;1.00;;;;;;5078315;28;20441;-60
2021/06/20 12:28:59;;;;;;;15.90;9.17;;;35.30;1.00;;;;;;5069697;28;20465;-61
2021/06/20 12:31:25;;;;;;;20.37;8.90;;;35.50;1.00;;;;;;5068223;28;20748;-61
2021/06/20 12:34:08;;;;;;;13.07;7.90;;;35.50;1.00;;;;;;5067133;28;20457;-61
2021/06/20 12:36:35;;;;;;;16.17;9.27;;;35.30;1.00;;;;;;5069716;28;20993;-61
2021/06/20 12:39:03;;;;;;;19.07;8.77;;;35.20;1.00;;;;;;5069539;28;20465;-62
2021/06/20 12:41:29;;;;;;;15.23;8.77;;;35.20;1.00;;;;;;5068357;28;20490;-62
2021/06/20 12:44:07;;;;;;;17.97;9.10;;;35.60;1.00;;;;;;5072271;28;20724;-62